Time;durP1;ratioP1;P1;durP2;ratioP2;P2;SDS_P1;SDS_P2;PMS_P1;PMS_P2;Temp;Humidity;BMP_temperature;BMP_pressure;BME280_temperature;BME280_humidity;BME280_pressure;Samples;Min_cycle;Max_cycle;Signal;HPM_P1;HPM_P2
2021/08/12 00:01:15;;;;;;;5.80;4.03;;;14.80;99.90;;;;;;5096217;28;20043;-64
2021/08/12 00:03:40;;;;;;;8.02;5.72;;;14.70;99.90;;;;;;5096712;28;20029;-64
2021/08/12 00:06:06;;;;;;;7.82;7.00;;;14.80;99.90;;;;;;5096221;28;20726;-64
2021/08/12 00:08:32;;;;;;;8.55;7.13;;;14.80;99.90;;;;;;5097133;28;20093;-64
2021/08/12 00:10:57;;;;;;;10.05;9.13;;;14.90;99.90;;;;;;5096344;28;20043;-64
2021/08/12 00:13:23;;;;;;;9.02;8.38;;;14.90;99.90;;;;;;5098011;28;20027;-64
2021/08/12 00:15:49;;;;;;;9.73;8.40;;;14.90;99.90;;;;;;5097183;28;20039;-64
2021/08/12 00:18:15;;;;;;;8.18;7.47;;;15.00;99.90;;;;;;5096295;27;20044;-64
2021/08/12 00:20:41;;;;;;;8.55;6.32;;;15.00;99.90;;;;;;5096549;28;20047;-64
2021/08/12 00:23:07;;;;;;;7.60;5.40;;;15.00;99.90;;;;;;5096780;28;20443;-64
2021/08/12 00:25:33;;;;;;;3.42;3.13;;;15.00;99.90;;;;;;5099258;28;20359;-64
2021/08/12 00:27:58;;;;;;;4.60;4.20;;;14.90;99.90;;;;;;5094424;28;20036;-64
2021/08/12 00:30:24;;;;;;;4.85;4.10;;;14.80;99.90;;;;;;5096712;28;20092;-64
2021/08/12 00:32:50;;;;;;;5.40;4.93;;;14.80;99.90;;;;;;5095372;28;20035;-64
2021/08/12 00:35:15;;;;;;;6.35;4.57;;;14.70;99.90;;;;;;5096060;28;20043;-64
2021/08/12 00:37:42;;;;;;;3.78;3.47;;;14.70;99.90;;;;;;5097160;28;20043;-64
2021/08/12 00:40:08;;;;;;;6.53;4.70;;;14.60;99.90;;;;;;5127775;27;20452;-64
2021/08/12 00:42:34;;;;;;;5.38;4.78;;;14.50;99.90;;;;;;5097800;28;20023;-64
2021/08/12 00:45:00;;;;;;;4.95;4.45;;;14.40;99.90;;;;;;5097103;28;20040;-64
2021/08/12 00:47:27;;;;;;;6.05;5.28;;;14.30;99.90;;;;;;5093021;28;20034;-64
2021/08/12 00:49:53;;;;;;;5.60;4.82;;;14.20;99.90;;;;;;5097106;28;20122;-64
2021/08/12 00:52:20;;;;;;;5.03;4.70;;;14.20;99.90;;;;;;5098005;28;20126;-64
2021/08/12 00:54:46;;;;;;;5.00;4.60;;;14.10;99.90;;;;;;5098243;28;20032;-64
2021/08/12 00:57:12;;;;;;;4.00;3.70;;;14.10;99.90;;;;;;5097704;28;20050;-64
2021/08/12 00:59:40;;;;;;;3.67;3.40;;;14.10;99.90;;;;;;5097767;28;20161;-64
2021/08/12 01:02:10;;;;;;;5.55;4.38;;;14.10;99.90;;;;;;5096458;28;20047;-64
2021/08/12 01:04:48;;;;;;;4.75;4.35;;;14.10;99.90;;;;;;5098748;28;20047;-64
2021/08/12 01:07:25;;;;;;;4.47;3.90;;;14.10;99.90;;;;;;5096678;28;20044;-64
2021/08/12 01:10:09;;;;;;;5.03;4.15;;;14.20;99.90;;;;;;5095407;28;20074;-64
2021/08/12 01:13:05;;;;;;;3.72;3.42;;;14.10;99.90;;;;;;5096304;28;20043;-64
2021/08/12 01:15:42;;;;;;;6.00;2.80;;;14.20;99.90;;;;;;5097973;28;20035;-64
2021/08/12 01:18:17;;;;;;;3.83;3.53;;;14.20;99.90;;;;;;5095272;28;20049;-64
2021/08/12 01:21:10;;;;;;;7.03;6.32;;;14.10;99.90;;;;;;5095993;28;20043;-64
2021/08/12 01:23:37;;;;;;;6.00;5.60;;;14.20;99.90;;;;;;5097894;28;20055;-64
2021/08/12 01:26:04;;;;;;;6.15;5.75;;;14.20;99.90;;;;;;5096507;28;20113;-64
2021/08/12 01:28:36;;;;;;;5.22;4.82;;;14.30;99.90;;;;;;5093119;28;20043;-64
2021/08/12 01:31:39;;;;;;;3.75;3.10;;;14.30;99.90;;;;;;5093486;28;20043;-64
2021/08/12 01:34:11;;;;;;;4.22;3.42;;;14.30;99.90;;;;;;5077166;28;20059;-64
2021/08/12 01:36:40;;;;;;;3.58;3.30;;;14.20;99.90;;;;;;5094429;28;20028;-64
2021/08/12 01:39:11;;;;;;;4.90;4.50;;;14.10;99.90;;;;;;5094423;28;20043;-64
2021/08/12 01:41:37;;;;;;;4.90;4.60;;;14.00;99.90;;;;;;5094839;28;20040;-64
2021/08/12 01:44:05;;;;;;;4.28;3.97;;;14.00;99.90;;;;;;5095691;28;20038;-64
2021/08/12 01:46:34;;;;;;;8.65;6.13;;;14.00;99.90;;;;;;5094940;28;20380;-64
2021/08/12 01:49:02;;;;;;;5.95;5.45;;;14.00;99.90;;;;;;5095189;27;20043;-64
2021/08/12 01:51:29;;;;;;;6.13;5.65;;;14.00;99.90;;;;;;5095299;28;20043;-64
2021/08/12 01:53:57;;;;;;;5.65;5.15;;;14.00;99.90;;;;;;5095485;28;20044;-64
2021/08/12 01:56:24;;;;;;;6.88;6.18;;;14.00;99.90;;;;;;5091897;28;20540;-64
2021/08/12 01:58:52;;;;;;;5.47;5.00;;;14.00;99.90;;;;;;5095331;28;20040;-64
2021/08/12 02:01:19;;;;;;;6.20;5.70;;;14.00;99.90;;;;;;5093416;28;20040;-64
2021/08/12 02:03:46;;;;;;;13.30;11.15;;;14.00;99.90;;;;;;5095103;28;20040;-64
2021/08/12 02:06:13;;;;;;;8.70;7.05;;;14.00;99.90;;;;;;5093371;28;20034;-64
2021/08/12 02:08:39;;;;;;;6.65;6.15;;;14.00;99.90;;;;;;5091850;28;20035;-64
2021/08/12 02:11:05;;;;;;;6.47;5.60;;;14.00;99.90;;;;;;5092109;28;20036;-64
2021/08/12 02:13:32;;;;;;;4.80;4.50;;;13.90;99.90;;;;;;5094869;28;20720;-64
2021/08/12 02:15:57;;;;;;;5.32;4.57;;;14.00;99.90;;;;;;5094347;28;20088;-64
2021/08/12 02:18:24;;;;;;;4.13;3.92;;;13.90;99.90;;;;;;5092153;28;20429;-64
2021/08/12 02:21:04;;;;;;;3.75;3.55;;;13.90;99.90;;;;;;5093787;28;20048;-64
2021/08/12 02:23:36;;;;;;;4.05;3.70;;;13.90;99.90;;;;;;5096047;28;20091;-64
2021/08/12 02:26:14;;;;;;;5.15;4.75;;;13.80;99.90;;;;;;5094054;28;20086;-64
2021/08/12 02:28:42;;;;;;;4.88;4.47;;;13.80;99.90;;;;;;5095809;28;20047;-64
2021/08/12 02:31:11;;;;;;;5.20;4.90;;;13.70;99.90;;;;;;5098880;28;20038;-64
2021/08/12 02:33:38;;;;;;;5.78;3.90;;;13.80;99.90;;;;;;5103335;28;20482;-64
2021/08/12 02:36:08;;;;;;;4.82;4.53;;;13.80;99.90;;;;;;5106831;28;20057;-64
2021/08/12 02:38:36;;;;;;;6.43;5.93;;;13.70;99.90;;;;;;5103080;28;20061;-64
2021/08/12 02:41:04;;;;;;;11.23;6.70;;;13.70;99.90;;;;;;5103488;28;20431;-64
2021/08/12 02:43:30;;;;;;;5.40;5.00;;;13.60;99.90;;;;;;5103094;28;20096;-64
2021/08/12 02:46:00;;;;;;;4.32;4.13;;;13.60;99.90;;;;;;5099572;28;20367;-64
2021/08/12 02:48:28;;;;;;;3.30;3.10;;;13.60;99.90;;;;;;5096058;28;20398;-64
2021/08/12 02:50:56;;;;;;;4.70;4.32;;;13.60;99.90;;;;;;5103593;28;20490;-64
2021/08/12 02:53:22;;;;;;;4.68;4.38;;;13.60;99.90;;;;;;5101987;28;20517;-64
2021/08/12 02:55:48;;;;;;;6.43;5.82;;;13.70;99.90;;;;;;5105720;28;20039;-64
2021/08/12 02:58:15;;;;;;;3.63;3.42;;;13.70;99.90;;;;;;5106731;27;20149;-64
2021/08/12 03:00:41;;;;;;;4.63;3.00;;;13.70;99.90;;;;;;5101592;28;20088;-64
2021/08/12 03:03:08;;;;;;;5.97;5.35;;;13.60;99.90;;;;;;5110631;27;20444;-64
2021/08/12 03:05:36;;;;;;;6.10;5.60;;;13.70;99.90;;;;;;5104359;28;20050;-64
2021/08/12 03:08:03;;;;;;;6.85;6.25;;;13.70;99.90;;;;;;5102205;28;20114;-64
2021/08/12 03:10:30;;;;;;;6.70;6.20;;;13.70;99.90;;;;;;5100437;28;20031;-64
2021/08/12 03:12:59;;;;;;;9.05;8.15;;;13.70;99.90;;;;;;5104790;28;20478;-64
2021/08/12 03:15:27;;;;;;;9.27;7.70;;;13.80;99.90;;;;;;5105234;28;20051;-64
2021/08/12 03:17:53;;;;;;;7.13;6.43;;;13.70;99.90;;;;;;5105798;27;20115;-64
2021/08/12 03:20:19;;;;;;;6.80;6.30;;;13.80;99.90;;;;;;5103315;28;20039;-64
2021/08/12 03:22:47;;;;;;;6.97;6.38;;;13.80;99.90;;;;;;5106284;28;20440;-64
2021/08/12 03:25:13;;;;;;;6.60;6.10;;;13.80;99.90;;;;;;5104779;28;20048;-64
2021/08/12 03:27:38;;;;;;;7.13;6.50;;;13.80;99.90;;;;;;5106411;28;20520;-64
2021/08/12 03:30:05;;;;;;;6.78;6.28;;;13.80;99.90;;;;;;5103336;28;20632;-64
2021/08/12 03:32:30;;;;;;;6.18;5.68;;;13.80;99.90;;;;;;5103018;28;20067;-64
2021/08/12 03:34:56;;;;;;;6.90;6.40;;;13.70;99.90;;;;;;5107475;28;20036;-64
2021/08/12 03:37:22;;;;;;;9.23;8.52;;;13.70;99.90;;;;;;5109954;28;20040;-64
2021/08/12 03:39:48;;;;;;;9.52;8.82;;;13.70;99.90;;;;;;5104749;28;21681;-64
2021/08/12 03:42:14;;;;;;;8.45;7.75;;;13.80;99.90;;;;;;5099658;28;20054;-64
2021/08/12 03:44:39;;;;;;;9.07;6.78;;;13.80;99.90;;;;;;5103779;28;20032;-64
2021/08/12 03:47:06;;;;;;;9.40;7.88;;;13.70;99.90;;;;;;5100380;28;20394;-64
2021/08/12 03:49:32;;;;;;;6.40;5.80;;;13.70;99.90;;;;;;5111475;28;20160;-64
2021/08/12 03:51:58;;;;;;;7.50;6.90;;;13.70;99.90;;;;;;5104746;28;20040;-64
2021/08/12 03:54:24;;;;;;;7.57;6.85;;;13.60;99.90;;;;;;5102348;28;20539;-64
2021/08/12 03:56:49;;;;;;;9.65;8.02;;;13.70;99.90;;;;;;5102574;28;20101;-64
2021/08/12 03:59:15;;;;;;;10.43;9.57;;;13.70;99.90;;;;;;5104808;28;20524;-64
2021/08/12 04:01:41;;;;;;;11.65;10.45;;;13.70;99.90;;;;;;5107099;28;20055;-64
2021/08/12 04:04:07;;;;;;;10.93;9.82;;;13.80;99.90;;;;;;5105574;28;20039;-64
2021/08/12 04:06:33;;;;;;;9.30;8.38;;;13.90;99.90;;;;;;5104178;27;20417;-64
2021/08/12 04:08:59;;;;;;;9.23;8.45;;;13.80;99.90;;;;;;5103297;28;20036;-64
2021/08/12 04:11:24;;;;;;;7.88;7.18;;;13.90;99.90;;;;;;5104191;28;20039;-64
2021/08/12 04:13:50;;;;;;;11.68;10.50;;;13.90;99.90;;;;;;5104155;27;20110;-64
2021/08/12 04:16:15;;;;;;;14.70;13.50;;;13.90;99.90;;;;;;5104842;28;20460;-64
2021/08/12 04:18:41;;;;;;;12.77;11.73;;;13.90;99.90;;;;;;5104698;28;20486;-64
2021/08/12 04:21:07;;;;;;;14.65;13.35;;;14.00;99.90;;;;;;5105726;28;20051;-65
2021/08/12 04:23:33;;;;;;;16.30;14.80;;;14.00;99.90;;;;;;5105285;28;20044;-65
2021/08/12 04:25:59;;;;;;;14.90;13.50;;;14.10;99.90;;;;;;5104933;28;20481;-65
2021/08/12 04:28:25;;;;;;;14.05;12.82;;;14.10;99.90;;;;;;5099890;28;20047;-65
2021/08/12 04:30:51;;;;;;;16.13;14.57;;;14.10;99.90;;;;;;5102189;28;20036;-64
2021/08/12 04:33:17;;;;;;;9.80;8.90;;;14.10;99.90;;;;;;5103810;28;20059;-65
2021/08/12 04:35:43;;;;;;;11.52;10.52;;;14.10;99.90;;;;;;5109824;28;20031;-65
2021/08/12 04:38:10;;;;;;;13.27;12.10;;;14.00;99.90;;;;;;5104755;28;20060;-65
2021/08/12 04:40:36;;;;;;;7.55;6.95;;;14.00;99.90;;;;;;5102034;27;20103;-64
2021/08/12 04:43:02;;;;;;;10.52;8.27;;;14.00;99.90;;;;;;5106975;27;20036;-65
2021/08/12 04:45:28;;;;;;;12.50;10.63;;;14.00;99.90;;;;;;5101073;28;20035;-65
2021/08/12 04:48:01;;;;;;;9.48;8.68;;;14.00;99.90;;;;;;5107135;28;20109;-64
2021/08/12 04:50:27;;;;;;;11.60;10.57;;;14.00;99.90;;;;;;5101818;28;20039;-64
2021/08/12 04:52:54;;;;;;;9.20;8.40;;;14.00;99.90;;;;;;5103724;28;20036;-64
2021/08/12 04:55:20;;;;;;;9.63;8.75;;;14.00;99.90;;;;;;5102145;27;20536;-64
2021/08/12 04:57:46;;;;;;;12.40;9.10;;;14.00;99.90;;;;;;5103386;28;20035;-65
2021/08/12 05:00:12;;;;;;;11.40;10.30;;;14.10;99.90;;;;;;5104439;28;20040;-65
2021/08/12 05:02:38;;;;;;;11.55;10.48;;;14.10;99.90;;;;;;5103406;28;20043;-65
2021/08/12 05:05:04;;;;;;;13.23;11.85;;;14.20;99.90;;;;;;5105801;28;20039;-64
2021/08/12 05:07:30;;;;;;;14.00;12.70;;;14.30;99.90;;;;;;5104368;27;20031;-64
2021/08/12 05:09:55;;;;;;;15.43;13.93;;;14.30;99.90;;;;;;5103783;28;20036;-65
2021/08/12 05:12:22;;;;;;;14.85;13.43;;;14.40;99.90;;;;;;5101180;28;20048;-65
2021/08/12 05:14:48;;;;;;;15.25;13.70;;;14.50;99.90;;;;;;5100191;27;20158;-65
2021/08/12 05:17:14;;;;;;;16.90;15.20;;;14.60;99.90;;;;;;5097395;28;20054;-64
2021/08/12 05:19:43;;;;;;;19.13;17.33;;;14.70;99.90;;;;;;5096818;28;20899;-64
2021/08/12 05:22:10;;;;;;;19.38;17.27;;;14.80;99.90;;;;;;5094728;28;20535;-65
2021/08/12 05:24:37;;;;;;;18.58;16.85;;;14.90;99.90;;;;;;5096221;28;20031;-65
2021/08/12 05:27:03;;;;;;;14.93;13.52;;;14.90;99.90;;;;;;5095129;28;20039;-64
2021/08/12 05:29:29;;;;;;;15.50;14.10;;;15.00;99.90;;;;;;5097285;28;20035;-65
2021/08/12 05:31:55;;;;;;;14.93;13.68;;;14.90;99.90;;;;;;5094309;28;20543;-65
2021/08/12 05:34:21;;;;;;;15.50;13.85;;;15.00;99.90;;;;;;5095165;28;20046;-65
2021/08/12 05:36:46;;;;;;;16.85;15.30;;;15.00;99.90;;;;;;5098399;28;20032;-65
2021/08/12 05:39:12;;;;;;;17.83;16.13;;;15.10;99.90;;;;;;5092654;28;20094;-65
2021/08/12 05:41:38;;;;;;;18.58;16.90;;;15.20;99.90;;;;;;5095257;28;20047;-65
2021/08/12 05:44:04;;;;;;;14.07;12.88;;;15.30;99.90;;;;;;5096873;28;20040;-65
2021/08/12 05:46:30;;;;;;;12.95;11.85;;;15.70;99.90;;;;;;5127962;27;20058;-65
2021/08/12 05:48:56;;;;;;;15.65;14.20;;;16.00;99.90;;;;;;5095496;28;20591;-65
2021/08/12 05:51:21;;;;;;;14.27;13.05;;;16.30;99.90;;;;;;5096192;28;20040;-65
2021/08/12 05:53:47;;;;;;;15.23;13.63;;;16.80;99.90;;;;;;5093895;28;20120;-65
2021/08/12 05:56:13;;;;;;;15.10;13.77;;;17.70;99.90;;;;;;5097007;28;20071;-65
2021/08/12 05:58:41;;;;;;;14.32;13.02;;;18.10;99.90;;;;;;5093997;28;20039;-65
2021/08/12 06:01:07;;;;;;;12.80;11.70;;;18.20;99.90;;;;;;5092329;28;20059;-65
2021/08/12 06:03:34;;;;;;;13.18;11.95;;;18.60;99.90;;;;;;5096909;28;20490;-65
2021/08/12 06:06:00;;;;;;;13.55;12.45;;;19.30;99.90;;;;;;5092862;28;20043;-65
2021/08/12 06:08:25;;;;;;;13.75;12.30;;;19.90;99.90;;;;;;5096380;28;20043;-65
2021/08/12 06:10:51;;;;;;;15.88;13.18;;;20.40;99.90;;;;;;5097034;28;20035;-65
2021/08/12 06:13:17;;;;;;;17.55;13.15;;;20.30;99.90;;;;;;5094933;28;20044;-65
2021/08/12 06:15:42;;;;;;;14.52;13.02;;;19.90;99.90;;;;;;5093342;28;20042;-66
2021/08/12 06:18:10;;;;;;;15.57;14.18;;;19.60;99.90;;;;;;5093265;28;21047;-65
2021/08/12 06:20:37;;;;;;;16.38;14.68;;;19.30;99.90;;;;;;5092633;28;20552;-65
2021/08/12 06:23:06;;;;;;;18.30;16.58;;;19.10;99.90;;;;;;5094446;28;20149;-65
2021/08/12 06:25:37;;;;;;;18.17;16.48;;;18.90;99.90;;;;;;5096645;28;20039;-65
2021/08/12 06:28:03;;;;;;;21.25;18.88;;;18.80;99.90;;;;;;5094593;28;20070;-65
2021/08/12 06:30:30;;;;;;;21.30;19.05;;;18.70;99.90;;;;;;5098041;28;20062;-65
2021/08/12 06:32:56;;;;;;;20.80;18.60;;;18.60;99.90;;;;;;5105518;28;20481;-65
2021/08/12 06:35:22;;;;;;;21.92;19.52;;;18.50;99.90;;;;;;5105633;28;20046;-65
2021/08/12 06:37:51;;;;;;;21.42;19.15;;;18.40;99.90;;;;;;5100281;27;20028;-65
2021/08/12 06:40:20;;;;;;;22.77;20.48;;;18.30;99.90;;;;;;5104843;27;20055;-66
2021/08/12 06:42:46;;;;;;;20.65;18.50;;;18.30;99.90;;;;;;5106335;27;20033;-66
2021/08/12 06:45:14;;;;;;;24.42;19.15;;;18.50;99.90;;;;;;5103621;28;20620;-66
2021/08/12 06:47:40;;;;;;;21.80;18.83;;;19.00;99.90;;;;;;5104626;28;20035;-65
2021/08/12 06:50:08;;;;;;;22.40;16.75;;;19.40;99.90;;;;;;5106519;27;20402;-66
2021/08/12 06:52:35;;;;;;;21.48;18.10;;;19.90;99.90;;;;;;5106150;27;20036;-66
2021/08/12 06:55:02;;;;;;;19.27;17.25;;;20.30;99.90;;;;;;5108023;28;20035;-66
2021/08/12 06:57:28;;;;;;;19.75;15.63;;;20.50;99.90;;;;;;5102845;28;20093;-66
2021/08/12 06:59:54;;;;;;;18.92;16.92;;;20.50;99.90;;;;;;5104569;28;20122;-66
2021/08/12 07:02:20;;;;;;;17.88;15.65;;;20.50;99.90;;;;;;5105057;28;20126;-66
2021/08/12 07:04:46;;;;;;;18.70;16.70;;;20.60;99.90;;;;;;5107477;27;20040;-66
2021/08/12 07:07:12;;;;;;;17.95;16.08;;;20.90;99.90;;;;;;5103444;27;20451;-66
2021/08/12 07:09:39;;;;;;;18.88;15.15;;;21.10;99.90;;;;;;5101029;27;20350;-66
2021/08/12 07:12:05;;;;;;;16.83;15.02;;;21.20;99.90;;;;;;5104393;27;20040;-66
2021/08/12 07:14:31;;;;;;;16.88;15.13;;;21.30;99.90;;;;;;5101725;28;20036;-66
2021/08/12 07:16:57;;;;;;;18.10;14.90;;;21.40;99.90;;;;;;5108258;27;20035;-66
2021/08/12 07:19:24;;;;;;;19.58;14.65;;;21.40;99.90;;;;;;5108495;28;20620;-66
2021/08/12 07:21:51;;;;;;;18.25;14.35;;;21.40;99.90;;;;;;5108193;28;20793;-65
2021/08/12 07:24:17;;;;;;;16.40;14.60;;;21.30;99.90;;;;;;5100484;28;20051;-65
2021/08/12 07:26:44;;;;;;;17.55;15.73;;;21.30;99.90;;;;;;5102589;28;20039;-66
2021/08/12 07:29:10;;;;;;;16.70;15.00;;;21.40;99.90;;;;;;5102173;28;20070;-66
2021/08/12 07:31:36;;;;;;;18.65;14.50;;;21.50;99.90;;;;;;5102607;28;20059;-65
2021/08/12 07:34:01;;;;;;;19.70;15.68;;;21.70;99.90;;;;;;5104316;28;20075;-65
2021/08/12 07:36:27;;;;;;;16.95;15.15;;;21.80;99.90;;;;;;5102383;28;20571;-65
2021/08/12 07:38:53;;;;;;;16.42;14.73;;;21.80;99.90;;;;;;5101606;28;20036;-66
2021/08/12 07:41:18;;;;;;;15.18;13.65;;;21.90;99.90;;;;;;5101353;28;20108;-66
2021/08/12 07:43:44;;;;;;;17.73;13.15;;;21.90;99.90;;;;;;5103145;28;20044;-66
2021/08/12 07:46:11;;;;;;;15.95;14.25;;;22.00;99.90;;;;;;5101916;28;20044;-65
2021/08/12 07:48:37;;;;;;;16.85;13.38;;;22.10;99.90;;;;;;5105440;28;20042;-65
2021/08/12 07:51:03;;;;;;;16.65;12.80;;;22.10;99.90;;;;;;5106603;28;20040;-65
2021/08/12 07:53:29;;;;;;;14.07;12.68;;;22.30;99.90;;;;;;5102046;28;20069;-65
2021/08/12 07:55:57;;;;;;;13.05;11.75;;;22.50;99.90;;;;;;5098413;28;20043;-65
2021/08/12 07:58:23;;;;;;;14.13;12.02;;;22.70;99.90;;;;;;5105356;28;20047;-65
2021/08/12 08:00:49;;;;;;;13.45;11.27;;;22.90;99.90;;;;;;5107622;28;20541;-65
2021/08/12 08:03:16;;;;;;;14.10;10.77;;;23.10;99.90;;;;;;5099960;28;20119;-65
2021/08/12 08:05:42;;;;;;;12.85;10.93;;;23.20;99.90;;;;;;5105809;28;20118;-65
2021/08/12 08:08:07;;;;;;;12.30;11.10;;;23.30;99.90;;;;;;5095991;28;20132;-65
2021/08/12 08:10:34;;;;;;;12.73;11.32;;;23.40;99.90;;;;;;5103965;28;20044;-65
2021/08/12 08:13:00;;;;;;;13.00;10.52;;;23.40;99.90;;;;;;5101682;28;20067;-65
2021/08/12 08:15:26;;;;;;;11.20;10.10;;;23.50;99.90;;;;;;5104427;28;20103;-65
2021/08/12 08:17:51;;;;;;;12.73;10.10;;;23.70;99.90;;;;;;5103112;28;20131;-65
2021/08/12 08:20:17;;;;;;;16.52;10.02;;;23.90;99.90;;;;;;5131578;27;20051;-65
2021/08/12 08:22:43;;;;;;;12.40;8.90;;;24.10;99.90;;;;;;5101530;28;20040;-65
2021/08/12 08:25:09;;;;;;;12.07;8.88;;;24.20;99.90;;;;;;5101797;28;20028;-65
2021/08/12 08:27:35;;;;;;;9.10;8.20;;;24.30;99.90;;;;;;5101622;28;20047;-65
2021/08/12 08:30:02;;;;;;;10.55;7.90;;;24.50;99.90;;;;;;5098928;28;20109;-65
2021/08/12 08:32:27;;;;;;;9.27;8.45;;;24.40;99.70;;;;;;5101893;28;20544;-65
2021/08/12 08:34:54;;;;;;;8.52;7.72;;;24.50;99.90;;;;;;5105434;28;20035;-65
2021/08/12 08:37:19;;;;;;;8.20;7.38;;;24.70;99.90;;;;;;5105751;28;20051;-65
2021/08/12 08:39:45;;;;;;;11.50;7.88;;;24.80;99.90;;;;;;5104829;28;20036;-65
2021/08/12 08:42:12;;;;;;;9.32;7.28;;;24.90;99.00;;;;;;5102174;28;20044;-65
2021/08/12 08:44:45;;;;;;;9.55;8.63;;;25.00;99.90;;;;;;5105428;28;20130;-65
2021/08/12 08:47:14;;;;;;;7.53;6.53;;;25.00;99.90;;;;;;5105436;28;20101;-66
2021/08/12 08:49:42;;;;;;;7.28;6.57;;;25.20;99.90;;;;;;5109320;28;20063;-66
2021/08/12 08:52:11;;;;;;;8.20;6.55;;;25.20;98.50;;;;;;5107092;28;20047;-66
2021/08/12 08:54:39;;;;;;;8.63;6.15;;;25.30;97.30;;;;;;5098548;28;20032;-66
2021/08/12 08:57:06;;;;;;;7.65;6.88;;;25.20;95.10;;;;;;5101020;28;20044;-65
2021/08/12 08:59:35;;;;;;;7.53;6.75;;;25.20;96.10;;;;;;5102733;28;20483;-65
2021/08/12 09:02:05;;;;;;;9.60;7.72;;;25.40;96.50;;;;;;5100087;28;20036;-65
2021/08/12 09:04:35;;;;;;;12.05;8.73;;;25.30;95.80;;;;;;5102235;28;20039;-65
2021/08/12 09:07:08;;;;;;;10.48;9.13;;;25.30;96.50;;;;;;5102556;28;20036;-65
2021/08/12 09:09:35;;;;;;;9.75;8.75;;;25.30;96.30;;;;;;5100099;28;20072;-65
2021/08/12 09:12:03;;;;;;;11.93;10.35;;;25.50;96.60;;;;;;5101673;28;20521;-65
2021/08/12 09:15:00;;;;;;;11.63;8.98;;;25.40;95.10;;;;;;5100644;28;20066;-65
2021/08/12 09:17:26;;;;;;;9.40;8.18;;;25.40;95.50;;;;;;5102276;28;20052;-65
2021/08/12 09:20:10;;;;;;;14.18;8.43;;;25.40;97.50;;;;;;5103365;28;20478;-66
2021/08/12 09:22:51;;;;;;;9.75;8.02;;;25.50;96.70;;;;;;5103110;28;20086;-66
2021/08/12 09:25:25;;;;;;;9.63;8.60;;;25.70;95.70;;;;;;5103854;28;20031;-65
2021/08/12 09:28:11;;;;;;;8.65;7.78;;;25.70;94.40;;;;;;5099418;28;20047;-65
2021/08/12 09:30:38;;;;;;;12.07;8.45;;;25.80;93.80;;;;;;5102280;28;20042;-66
2021/08/12 09:33:03;;;;;;;9.05;7.95;;;25.80;95.80;;;;;;5104822;28;20511;-65
2021/08/12 09:35:29;;;;;;;10.93;8.18;;;25.80;95.50;;;;;;5109476;28;20107;-65
2021/08/12 09:38:08;;;;;;;14.38;8.77;;;25.90;96.10;;;;;;5103775;28;20036;-65
2021/08/12 09:40:34;;;;;;;9.98;7.88;;;25.80;93.80;;;;;;5097594;28;20040;-65
2021/08/12 09:43:02;;;;;;;10.60;6.55;;;25.90;95.20;;;;;;5098118;28;20042;-65
2021/08/12 09:45:30;;;;;;;6.40;5.47;;;25.80;93.70;;;;;;5104706;28;20047;-65
2021/08/12 09:48:15;;;;;;;8.23;6.05;;;25.80;93.50;;;;;;5107029;28;20032;-65
2021/08/12 09:50:43;;;;;;;9.07;5.57;;;25.80;94.50;;;;;;5102332;28;20035;-65
2021/08/12 09:53:18;;;;;;;9.48;5.97;;;25.80;95.40;;;;;;5095690;28;20058;-65
2021/08/12 09:55:44;;;;;;;6.43;5.47;;;25.80;95.20;;;;;;5095821;28;20436;-65
2021/08/12 09:58:10;;;;;;;13.27;5.93;;;25.80;94.80;;;;;;5095308;28;20043;-65
2021/08/12 10:00:39;;;;;;;8.18;5.10;;;25.70;94.70;;;;;;5094822;28;20059;-65
2021/08/12 10:03:30;;;;;;;11.93;5.72;;;25.80;95.80;;;;;;5092330;28;20097;-65
2021/08/12 10:05:58;;;;;;;6.85;6.00;;;25.90;94.30;;;;;;5094964;28;20042;-65
2021/08/12 10:08:35;;;;;;;7.30;6.20;;;26.10;96.00;;;;;;5095639;28;20039;-65
2021/08/12 10:11:15;;;;;;;6.82;6.13;;;26.20;94.30;;;;;;5094297;28;20039;-65
2021/08/12 10:13:41;;;;;;;6.22;5.63;;;26.20;95.40;;;;;;5095480;28;20193;-65
2021/08/12 10:16:08;;;;;;;5.93;4.35;;;26.20;95.20;;;;;;5096069;28;20551;-65
2021/08/12 10:18:39;;;;;;;10.73;4.93;;;26.30;94.90;;;;;;5092403;28;20415;-65
2021/08/12 10:21:05;;;;;;;12.98;5.35;;;26.40;95.00;;;;;;5094467;28;20036;-65
2021/08/12 10:23:31;;;;;;;10.50;4.65;;;26.20;94.00;;;;;;5093629;28;20036;-65
2021/08/12 10:26:01;;;;;;;6.78;4.90;;;26.20;93.50;;;;;;5094302;28;20042;-65
2021/08/12 10:28:28;;;;;;;6.95;5.40;;;26.10;91.80;;;;;;5095408;28;20525;-65
2021/08/12 10:30:54;;;;;;;6.93;5.72;;;26.10;91.70;;;;;;5095457;28;20130;-65
2021/08/12 10:33:20;;;;;;;10.10;6.95;;;26.10;91.90;;;;;;5094932;28;20458;-65
2021/08/12 10:35:47;;;;;;;11.02;6.90;;;26.10;91.10;;;;;;5096222;28;20031;-65
2021/08/12 10:38:12;;;;;;;8.13;5.78;;;26.10;92.60;;;;;;5092416;28;20039;-65
2021/08/12 10:40:41;;;;;;;7.78;6.95;;;26.10;86.90;;;;;;5092826;28;20077;-65
2021/08/12 10:43:10;;;;;;;7.85;6.55;;;26.10;91.10;;;;;;5093584;28;20068;-66
2021/08/12 10:45:36;;;;;;;8.02;6.18;;;26.20;91.80;;;;;;5093574;28;20122;-65
2021/08/12 10:48:03;;;;;;;6.85;5.97;;;26.40;92.10;;;;;;5093183;28;20093;-66
2021/08/12 10:50:31;;;;;;;8.43;6.03;;;26.40;91.10;;;;;;5092809;28;20478;-65
2021/08/12 10:53:12;;;;;;;8.27;5.07;;;26.50;91.50;;;;;;5093752;28;20047;-65
2021/08/12 10:55:38;;;;;;;6.18;4.47;;;26.60;91.90;;;;;;5095684;28;20118;-65
2021/08/12 10:58:40;;;;;;;6.63;4.55;;;26.60;91.30;;;;;;5094565;28;20160;-66
2021/08/12 11:01:10;;;;;;;5.45;4.80;;;26.70;91.80;;;;;;5092572;28;20067;-65
2021/08/12 11:03:37;;;;;;;17.33;5.97;;;26.80;91.70;;;;;;5098003;28;20070;-66
2021/08/12 11:06:04;;;;;;;6.43;5.75;;;26.90;91.50;;;;;;5094925;28;20217;-65
2021/08/12 11:08:52;;;;;;;10.07;5.15;;;26.80;90.90;;;;;;5094878;28;20040;-66
2021/08/12 11:11:20;;;;;;;6.57;5.00;;;26.80;90.90;;;;;;5091772;28;20044;-65
2021/08/12 11:13:47;;;;;;;10.13;5.15;;;26.70;90.80;;;;;;5095100;28;20040;-65
2021/08/12 11:16:13;;;;;;;9.65;3.63;;;26.70;89.40;;;;;;5096373;28;20044;-65
2021/08/12 11:18:59;;;;;;;6.50;4.57;;;26.70;90.70;;;;;;5097764;28;20032;-66
2021/08/12 11:21:31;;;;;;;11.18;4.10;;;26.70;90.50;;;;;;5097474;27;20032;-65
2021/08/12 11:24:09;;;;;;;11.77;4.55;;;26.80;90.30;;;;;;5095198;28;20616;-66
2021/08/12 11:26:41;;;;;;;10.23;4.63;;;26.90;92.40;;;;;;5095372;28;20043;-66
2021/08/12 11:29:28;;;;;;;7.82;4.35;;;26.90;89.80;;;;;;5094450;28;20038;-66
2021/08/12 11:31:55;;;;;;;11.43;5.85;;;26.90;91.60;;;;;;5098902;28;20124;-65
2021/08/12 11:34:25;;;;;;;9.32;5.10;;;26.90;90.40;;;;;;5094690;28;20052;-65
2021/08/12 11:37:15;;;;;;;6.55;4.03;;;26.90;91.70;;;;;;5097497;28;20042;-65
2021/08/12 11:39:59;;;;;;;6.75;4.38;;;26.70;92.40;;;;;;5096691;27;20072;-65
2021/08/12 11:42:31;;;;;;;5.78;3.70;;;26.50;91.00;;;;;;5093503;28;20044;-65
2021/08/12 11:45:00;;;;;;;10.20;4.88;;;26.50;91.10;;;;;;5095883;28;20047;-65
2021/08/12 11:47:26;;;;;;;6.72;3.65;;;26.50;90.50;;;;;;5094500;28;20043;-65
2021/08/12 11:49:55;;;;;;;5.40;3.95;;;26.30;91.30;;;;;;5097812;28;20063;-65
2021/08/12 11:52:35;;;;;;;5.95;4.22;;;26.10;91.40;;;;;;5095739;28;20067;-65
2021/08/12 11:55:09;;;;;;;10.40;4.00;;;26.00;93.00;;;;;;5096496;28;20059;-65
2021/08/12 11:57:57;;;;;;;10.35;3.70;;;26.10;92.50;;;;;;5093263;27;20043;-65
2021/08/12 12:00:29;;;;;;;6.32;4.63;;;25.90;92.80;;;;;;5099713;28;20059;-65
2021/08/12 12:03:04;;;;;;;8.57;5.68;;;26.00;94.60;;;;;;5095382;28;20032;-65
2021/08/12 12:05:32;;;;;;;6.53;4.40;;;26.00;94.30;;;;;;5095509;28;20487;-65
2021/08/12 12:08:05;;;;;;;7.25;4.72;;;25.90;94.40;;;;;;5095462;28;20105;-65
2021/08/12 12:10:35;;;;;;;8.80;6.30;;;26.00;95.50;;;;;;5097145;28;20105;-65
2021/08/12 12:13:17;;;;;;;5.35;4.70;;;26.10;95.10;;;;;;5095991;28;20039;-65
2021/08/12 12:15:55;;;;;;;8.00;5.43;;;26.00;94.10;;;;;;5096433;28;20035;-65
2021/08/12 12:18:31;;;;;;;7.90;6.10;;;26.10;93.60;;;;;;5096194;28;20032;-65
2021/08/12 12:21:14;;;;;;;10.38;6.03;;;26.00;92.00;;;;;;5096302;28;20047;-65
2021/08/12 12:23:42;;;;;;;7.70;5.25;;;26.00;93.50;;;;;;5097373;28;20070;-65
2021/08/12 12:26:20;;;;;;;8.30;5.22;;;26.00;92.10;;;;;;5096107;28;20039;-65
2021/08/12 12:28:49;;;;;;;26.08;5.63;;;26.00;93.60;;;;;;5095191;28;20403;-65
2021/08/12 12:31:20;;;;;;;8.65;5.68;;;26.10;94.80;;;;;;5094723;28;20145;-65
2021/08/12 12:33:56;;;;;;;10.27;5.55;;;26.10;93.20;;;;;;5097917;28;20481;-65
2021/08/12 12:36:22;;;;;;;6.22;4.68;;;26.20;94.30;;;;;;5091900;28;20035;-65
2021/08/12 12:38:51;;;;;;;8.50;5.25;;;26.20;94.90;;;;;;5097159;27;20032;-65
2021/08/12 12:41:16;;;;;;;5.95;5.22;;;26.30;93.90;;;;;;5095049;28;20100;-65
2021/08/12 12:43:42;;;;;;;5.70;5.13;;;26.40;93.80;;;;;;5096943;28;20036;-65
2021/08/12 12:46:08;;;;;;;10.18;4.93;;;26.40;93.90;;;;;;5096278;28;20131;-65